OIZB

Zabol Airport

Airport
ICAO code
OIZB
IATA Code
ACZ
Summary
ICAO Region
MID
ICAO Territory
Location

Zabol, Sistan and Baluchistan Province

Serving
Zabol
Elevation
1628 ft
Coordinates
31° 5' 16" N , 61° 32' 34" E
KCC
Metar
Observation
OIZB 070200Z 36008KT CAVOK 06/M02 Q1023
Station
Zabol
Date/Time
2022-12-07 02:00:00
Wind direction
360°
Wind speed
08 kts
Lowest cloud amount
clouds and visibility OK
Temperature
6°C
Dew point
-2°C
Humidity
56%
QNH
1023 hPa
Weather condition
n/a

Airport 9km northeast of the Iranian city of Zabol, close to the Afghan border.

Climatology

Hot Desert climate (Köppen climate classification BWh).

Runways

Designator Length Width Surface Rops
16/34 3002 45 ASP No/No

Airport map

Aerial View

SKYbrary Partners:

Safety knowledge contributed by: